createdAt,value
2018-11-29T00:00:46.840Z,12.90
2018-11-29T00:03:16.944Z,12.23
2018-11-29T00:05:47.039Z,10.40
2018-11-29T00:08:16.380Z,10.90
2018-11-29T00:10:46.291Z,10.97
2018-11-29T00:13:15.441Z,11.00
2018-11-29T00:15:44.740Z,10.20
2018-11-29T00:18:13.925Z,11.80
2018-11-29T00:20:43.051Z,11.07
2018-11-29T00:23:12.244Z,10.73
2018-11-29T00:25:41.439Z,9.33
2018-11-29T00:28:10.593Z,9.07
2018-11-29T00:30:40.729Z,9.10
2018-11-29T00:33:10.006Z,9.03
2018-11-29T00:35:39.196Z,8.87
2018-11-29T00:38:08.616Z,8.50
2018-11-29T00:40:38.410Z,9.07
2018-11-29T00:43:07.548Z,8.80
2018-11-29T00:45:36.707Z,9.27
2018-11-29T00:48:06.025Z,9.40
2018-11-29T00:50:35.638Z,8.90
2018-11-29T00:53:04.896Z,9.23
2018-11-29T00:55:34.031Z,9.43
2018-11-29T00:58:03.185Z,9.47
2018-11-29T01:00:32.404Z,8.77
2018-11-29T01:03:01.574Z,9.23
2018-11-29T01:05:30.691Z,9.37
2018-11-29T01:07:59.903Z,9.30
2018-11-29T01:10:29.057Z,9.33
2018-11-29T01:12:58.187Z,9.50
2018-11-29T01:15:27.389Z,8.80
2018-11-29T01:17:56.544Z,8.07
2018-11-29T01:20:25.701Z,10.00
2018-11-29T01:22:54.892Z,8.97
2018-11-29T01:25:24.695Z,10.87
2018-11-29T01:27:53.846Z,9.93
2018-11-29T01:30:23.220Z,8.83
2018-11-29T01:32:52.353Z,9.40
2018-11-29T01:35:21.752Z,9.70
2018-11-29T01:37:50.987Z,7.17
2018-11-29T01:40:22.737Z,6.43
2018-11-29T01:42:56.124Z,6.33
2018-11-29T01:45:26.334Z,6.70
2018-11-29T01:47:55.539Z,7.53
2018-11-29T01:50:25.249Z,7.40
2018-11-29T01:52:54.424Z,6.20
2018-11-29T01:55:24.039Z,6.67
2018-11-29T01:57:53.221Z,6.43
2018-11-29T02:00:23.061Z,6.20
2018-11-29T02:02:53.124Z,7.17
2018-11-29T02:05:22.425Z,6.70
2018-11-29T02:07:51.992Z,6.40
2018-11-29T02:10:27.835Z,5.43
2018-11-29T02:12:57.712Z,6.50
2018-11-29T02:15:27.420Z,6.33
2018-11-29T02:17:56.572Z,6.27
2018-11-29T02:20:25.781Z,6.43
2018-11-29T02:22:55.005Z,6.40
2018-11-29T02:25:24.291Z,6.13
2018-11-29T02:27:53.479Z,6.17
2018-11-29T02:30:23.500Z,6.37
2018-11-29T02:32:53.049Z,5.93
2018-11-29T02:35:22.198Z,6.37
2018-11-29T02:37:51.538Z,6.10
2018-11-29T02:40:20.728Z,5.43
2018-11-29T02:45:50.611Z,6.07
2018-11-29T02:48:19.548Z,5.83
2018-11-29T02:50:48.895Z,5.97
2018-11-29T02:53:17.871Z,5.93
2018-11-29T02:55:46.882Z,6.07
2018-11-29T02:58:16.111Z,5.90
2018-11-29T03:00:45.774Z,5.63
2018-11-29T03:03:14.730Z,5.47
2018-11-29T03:05:43.796Z,6.20
2018-11-29T03:08:13.644Z,6.30
2018-11-29T03:10:42.573Z,6.00
2018-11-29T03:13:12.490Z,5.40
2018-11-29T03:15:41.448Z,6.10
2018-11-29T03:18:10.375Z,5.97
2018-11-29T03:20:39.324Z,6.57
2018-11-29T03:23:08.365Z,6.03
2018-11-29T03:25:37.316Z,6.20
2018-11-29T03:28:06.672Z,5.97
2018-11-29T03:30:35.633Z,5.97
2018-11-29T03:33:04.554Z,6.57
2018-11-29T03:35:33.532Z,6.77
2018-11-29T03:38:02.465Z,6.63
2018-11-29T03:40:31.543Z,5.90
2018-11-29T03:43:00.554Z,5.87
2018-11-29T03:45:29.507Z,6.50
2018-11-29T03:47:59.360Z,5.67
2018-11-29T03:50:29.116Z,5.97
2018-11-29T03:52:58.324Z,5.67
2018-11-29T03:55:27.321Z,6.37
2018-11-29T03:57:56.365Z,6.13
2018-11-29T04:00:25.491Z,5.97
2018-11-29T04:02:56.120Z,5.90
2018-11-29T04:05:25.251Z,5.90
2018-11-29T04:07:54.480Z,5.97
2018-11-29T04:10:23.862Z,5.70
2018-11-29T04:12:52.892Z,5.93
2018-11-29T04:15:22.880Z,6.00
2018-11-29T04:17:51.866Z,5.97
2018-11-29T04:20:21.908Z,5.77
2018-11-29T04:22:51.434Z,5.63
2018-11-29T04:25:21.891Z,6.27
2018-11-29T04:27:51.084Z,5.60
2018-11-29T04:30:20.029Z,6.20
2018-11-29T04:32:49.005Z,5.77
2018-11-29T04:35:17.965Z,5.90
2018-11-29T04:37:47.404Z,7.03
2018-11-29T04:40:17.428Z,7.00
2018-11-29T04:42:46.727Z,7.73
2018-11-29T04:45:18.484Z,6.40
2018-11-29T04:47:47.922Z,10.70
2018-11-29T04:50:17.582Z,7.87
2018-11-29T04:52:46.527Z,6.40
2018-11-29T04:55:15.465Z,7.20
2018-11-29T04:57:44.405Z,7.90
2018-11-29T05:00:14.472Z,7.90
2018-11-29T05:02:43.511Z,6.70
2018-11-29T05:05:13.463Z,6.47
2018-11-29T05:07:42.419Z,6.70
2018-11-29T05:10:12.723Z,7.70
2018-11-29T05:12:41.656Z,7.03
2018-11-29T05:15:11.651Z,8.27
2018-11-29T05:17:40.701Z,7.13
2018-11-29T05:20:10.052Z,8.40
2018-11-29T05:22:38.932Z,8.13
2018-11-29T05:25:08.900Z,8.30
2018-11-29T05:27:37.925Z,7.93
2018-11-29T05:30:10.567Z,8.87
2018-11-29T05:32:39.468Z,8.37
2018-11-29T05:35:09.928Z,7.70
2018-11-29T05:37:39.712Z,8.50
2018-11-29T05:40:11.327Z,8.60
2018-11-29T05:42:40.323Z,8.77
2018-11-29T05:45:10.368Z,8.97
2018-11-29T05:47:39.405Z,9.53
2018-11-29T05:50:10.346Z,10.33
2018-11-29T05:52:39.888Z,11.07
2018-11-29T05:55:11.458Z,8.67
2018-11-29T05:57:40.504Z,9.67
2018-11-29T06:00:11.890Z,9.27
2018-11-29T06:02:40.948Z,8.80
2018-11-29T06:05:11.313Z,8.63
2018-11-29T06:07:40.808Z,9.27
2018-11-29T06:10:10.096Z,8.57
2018-11-29T06:12:39.240Z,8.73
2018-11-29T06:15:11.014Z,9.37
2018-11-29T06:17:40.465Z,10.03
2018-11-29T06:20:14.600Z,10.07
2018-11-29T06:22:43.656Z,12.03
2018-11-29T06:25:12.697Z,14.07
2018-11-29T06:27:41.625Z,13.30
2018-11-29T06:30:19.890Z,11.87
2018-11-29T06:32:49.573Z,11.70
2018-11-29T06:35:18.557Z,10.67
2018-11-29T06:37:47.612Z,12.00
2018-11-29T06:40:17.369Z,12.40
2018-11-29T06:42:46.550Z,13.47
2018-11-29T06:45:17.385Z,11.37
2018-11-29T06:47:47.428Z,11.97
2018-11-29T06:50:16.481Z,12.43
2018-11-29T06:52:46.555Z,10.97
2018-11-29T06:55:21.484Z,10.20
2018-11-29T06:57:51.247Z,11.20
2018-11-29T07:00:29.704Z,9.97
2018-11-29T07:02:58.821Z,10.87
2018-11-29T07:05:28.584Z,10.97
2018-11-29T07:07:58.510Z,11.90
2018-11-29T07:10:34.659Z,20.63
2018-11-29T07:13:05.877Z,12.53
2018-11-29T07:15:36.320Z,12.40
2018-11-29T07:18:06.549Z,23.33
2018-11-29T07:20:35.525Z,18.40
2018-11-29T07:23:05.632Z,14.97
2018-11-29T07:25:34.663Z,11.13
2018-11-29T07:28:04.204Z,10.63
2018-11-29T07:30:33.482Z,11.87
2018-11-29T07:33:03.288Z,12.30
2018-11-29T07:35:32.704Z,13.83
2018-11-29T07:38:02.185Z,11.73
2018-11-29T07:40:31.696Z,12.53
2018-11-29T07:43:01.588Z,14.10
2018-11-29T07:45:32.041Z,11.87
2018-11-29T07:48:01.749Z,16.00
2018-11-29T07:50:31.064Z,20.40
2018-11-29T07:53:00.548Z,18.83
2018-11-29T07:55:30.353Z,15.90
2018-11-29T07:58:00.876Z,13.50
2018-11-29T08:00:30.309Z,13.00
2018-11-29T08:02:59.352Z,16.03
2018-11-29T08:05:28.263Z,13.77
2018-11-29T08:07:57.250Z,13.10
2018-11-29T08:10:27.346Z,13.70
2018-11-29T08:12:56.902Z,14.17
2018-11-29T08:15:25.829Z,13.43
2018-11-29T08:17:55.957Z,14.67
2018-11-29T08:20:24.945Z,17.33
2018-11-29T08:22:53.920Z,14.43
2018-11-29T08:25:22.860Z,17.00
2018-11-29T08:27:52.497Z,13.90
2018-11-29T08:30:21.521Z,13.53
2018-11-29T08:32:51.543Z,13.67
2018-11-29T08:35:20.710Z,13.53
2018-11-29T08:37:50.224Z,13.57
2018-11-29T08:40:20.640Z,13.43
2018-11-29T08:42:49.692Z,11.47
2018-11-29T08:45:18.614Z,11.73
2018-11-29T08:47:48.212Z,12.00
2018-11-29T08:50:17.734Z,12.40
2018-11-29T08:52:47.854Z,11.53
2018-11-29T08:55:19.724Z,20.93
2018-11-29T08:57:49.746Z,18.93
2018-11-29T09:00:19.641Z,18.70
2018-11-29T09:02:49.630Z,18.00
2018-11-29T09:05:19.281Z,23.37
2018-11-29T09:07:49.614Z,24.97
2018-11-29T09:10:24.510Z,14.03
2018-11-29T09:12:54.201Z,17.57
2018-11-29T09:15:23.276Z,16.87
2018-11-29T09:17:52.203Z,16.97
2018-11-29T09:20:22.173Z,23.43
2018-11-29T09:22:51.120Z,24.47
2018-11-29T09:25:23.035Z,33.13
2018-11-29T09:27:53.341Z,19.47
2018-11-29T09:30:23.404Z,23.57
2018-11-29T09:32:53.475Z,18.53
2018-11-29T09:35:22.422Z,14.83
2018-11-29T09:37:51.517Z,17.00
2018-11-29T09:40:20.529Z,14.37
2018-11-29T09:42:49.539Z,11.87
2018-11-29T09:45:20.593Z,13.43
2018-11-29T09:47:55.861Z,14.03
2018-11-29T09:50:27.068Z,14.17
2018-11-29T09:52:56.052Z,14.10
2018-11-29T09:55:25.036Z,12.80
2018-11-29T09:57:54.139Z,13.70
2018-11-29T10:00:28.450Z,11.13
2018-11-29T10:03:08.589Z,12.50
2018-11-29T10:05:37.919Z,11.60
2018-11-29T10:08:11.870Z,12.27
2018-11-29T10:10:37.053Z,10.97
2018-11-29T10:13:07.083Z,12.97
2018-11-29T10:15:36.184Z,15.43
2018-11-29T10:18:05.722Z,15.07
2018-11-29T10:20:35.724Z,17.03
2018-11-29T10:23:05.878Z,11.97
2018-11-29T10:25:34.797Z,12.57
2018-11-29T10:28:12.829Z,13.43
2018-11-29T10:30:51.645Z,11.73
2018-11-29T10:33:21.253Z,11.80
2018-11-29T10:35:51.079Z,12.47
2018-11-29T10:38:20.501Z,11.10
2018-11-29T10:40:50.259Z,12.33
2018-11-29T10:43:19.859Z,13.40
2018-11-29T10:45:48.814Z,12.43
2018-11-29T10:48:19.681Z,10.77
2018-11-29T10:50:48.708Z,11.33
2018-11-29T10:53:17.941Z,11.83
2018-11-29T10:55:46.955Z,11.63
2018-11-29T10:58:15.946Z,10.80
2018-11-29T11:00:50.126Z,11.43
2018-11-29T11:03:20.058Z,11.97
2018-11-29T11:05:52.184Z,10.57
2018-11-29T11:08:21.611Z,10.43
2018-11-29T11:10:51.463Z,10.47
2018-11-29T11:13:20.562Z,10.70
2018-11-29T11:15:49.556Z,9.63
2018-11-29T11:18:18.897Z,9.27
2018-11-29T11:20:47.820Z,10.13
2018-11-29T11:23:16.864Z,9.43
2018-11-29T11:25:46.649Z,10.20
2018-11-29T11:28:15.589Z,7.70
2018-11-29T11:30:45.203Z,8.50
2018-11-29T11:33:14.218Z,9.10
2018-11-29T11:35:43.179Z,8.93
2018-11-29T11:38:12.107Z,8.87
2018-11-29T11:40:41.066Z,8.93
2018-11-29T11:43:09.984Z,8.73
2018-11-29T11:45:38.938Z,10.80
2018-11-29T11:48:08.110Z,12.20
2018-11-29T11:50:37.573Z,11.10
2018-11-29T11:53:08.158Z,10.80
2018-11-29T11:55:37.540Z,10.67
2018-11-29T11:58:07.538Z,9.73
2018-11-29T12:00:36.706Z,9.20
2018-11-29T12:03:11.064Z,8.40
2018-11-29T12:05:40.071Z,8.87
2018-11-29T12:08:09.097Z,9.00
2018-11-29T12:10:38.953Z,9.93
2018-11-29T12:13:08.372Z,9.43
2018-11-29T12:15:38.379Z,8.67
2018-11-29T12:18:11.491Z,8.43
2018-11-29T12:20:40.803Z,10.97
2018-11-29T12:23:10.104Z,9.73
2018-11-29T12:25:39.024Z,9.33
2018-11-29T12:28:07.966Z,9.57
2018-11-29T12:30:40.289Z,9.37
2018-11-29T12:33:09.229Z,11.17
2018-11-29T12:35:38.123Z,12.20
2018-11-29T12:38:08.942Z,10.43
2018-11-29T12:40:37.896Z,10.90
2018-11-29T12:43:07.285Z,9.43
2018-11-29T12:45:36.448Z,9.97
2018-11-29T12:48:05.629Z,11.03
2018-11-29T12:50:37.194Z,10.30
2018-11-29T12:53:06.854Z,10.00
2018-11-29T12:55:38.572Z,10.43
2018-11-29T12:58:07.273Z,10.20
2018-11-29T13:00:36.189Z,10.07
2018-11-29T13:05:37.458Z,10.20
2018-11-29T13:08:07.349Z,8.83
2018-11-29T13:10:36.320Z,9.40
2018-11-29T13:13:06.134Z,10.20
2018-11-29T13:15:35.532Z,9.80
2018-11-29T13:18:06.467Z,10.43
2018-11-29T13:20:35.477Z,10.10
2018-11-29T13:23:04.530Z,11.10
2018-11-29T13:25:33.494Z,12.37
2018-11-29T13:28:02.524Z,11.23
2018-11-29T13:30:31.461Z,12.20
2018-11-29T13:33:00.403Z,11.87
2018-11-29T13:35:33.501Z,11.67
2018-11-29T13:38:07.193Z,11.63
2018-11-29T13:40:36.110Z,12.37
2018-11-29T13:43:05.242Z,10.30
2018-11-29T13:45:34.333Z,10.93
2018-11-29T13:48:03.985Z,9.30
2018-11-29T13:50:32.927Z,8.70
2018-11-29T13:53:01.934Z,10.43
2018-11-29T13:55:30.861Z,10.93
2018-11-29T13:58:00.061Z,12.57
2018-11-29T14:00:29.856Z,11.70
2018-11-29T14:03:11.154Z,11.50
2018-11-29T14:05:40.828Z,9.53
2018-11-29T14:08:11.053Z,9.67
2018-11-29T14:10:41.373Z,10.40
2018-11-29T14:13:10.532Z,10.43
2018-11-29T14:15:40.027Z,12.20
2018-11-29T14:18:09.369Z,12.27
2018-11-29T14:20:38.379Z,11.80
2018-11-29T14:23:08.237Z,11.33
2018-11-29T14:25:38.051Z,12.73
2018-11-29T14:28:07.822Z,12.83
2018-11-29T14:30:36.746Z,14.23
2018-11-29T14:33:06.464Z,12.83
2018-11-29T14:35:35.574Z,12.73
2018-11-29T14:38:04.636Z,14.63
2018-11-29T14:40:35.891Z,13.93
2018-11-29T14:43:05.333Z,13.80
2018-11-29T14:45:34.304Z,14.43
2018-11-29T14:48:03.806Z,11.53
2018-11-29T14:50:34.961Z,14.77
2018-11-29T14:53:04.447Z,16.43
2018-11-29T14:55:33.353Z,15.37
2018-11-29T14:58:02.290Z,14.47
2018-11-29T15:00:31.301Z,14.37
2018-11-29T15:03:01.592Z,14.73
2018-11-29T15:05:32.489Z,14.47
2018-11-29T15:08:01.586Z,20.27
2018-11-29T15:10:30.501Z,19.70
2018-11-29T15:12:59.681Z,13.40
2018-11-29T15:15:28.594Z,13.87
2018-11-29T15:17:57.605Z,14.70
2018-11-29T15:20:39.433Z,13.50
2018-11-29T15:23:09.205Z,13.20
2018-11-29T15:25:38.121Z,14.60
2018-11-29T15:28:07.235Z,14.23
2018-11-29T15:30:36.120Z,14.63
2018-11-29T15:33:05.098Z,14.13
2018-11-29T15:35:34.024Z,14.60
2018-11-29T15:38:03.457Z,17.63
2018-11-29T15:40:32.486Z,13.67
2018-11-29T15:43:01.479Z,14.80
2018-11-29T15:45:30.390Z,13.23
2018-11-29T15:47:59.504Z,14.57
2018-11-29T15:50:28.412Z,15.63
2018-11-29T15:52:57.314Z,14.70
2018-11-29T15:55:26.293Z,15.83
2018-11-29T15:57:55.348Z,14.53
2018-11-29T16:00:28.453Z,17.63
2018-11-29T16:03:00.245Z,14.60
2018-11-29T16:05:29.244Z,16.80
2018-11-29T16:07:58.210Z,19.93
2018-11-29T16:10:27.798Z,13.53
2018-11-29T16:12:56.733Z,14.70
2018-11-29T16:15:25.664Z,15.77
2018-11-29T16:17:54.605Z,20.17
2018-11-29T16:20:26.489Z,17.83
2018-11-29T16:22:55.498Z,15.60
2018-11-29T16:25:24.796Z,18.60
2018-11-29T16:27:53.785Z,15.23
2018-11-29T16:30:36.027Z,17.80
2018-11-29T16:33:13.328Z,16.07
2018-11-29T16:35:42.320Z,19.53
2018-11-29T16:38:11.218Z,19.10
2018-11-29T16:40:40.484Z,16.23
2018-11-29T16:43:09.505Z,21.77
2018-11-29T16:45:38.448Z,17.10
2018-11-29T16:48:07.796Z,16.20
2018-11-29T16:50:37.713Z,18.03
2018-11-29T16:53:07.636Z,18.10
2018-11-29T16:55:37.041Z,15.97
2018-11-29T16:58:09.375Z,15.20
2018-11-29T17:00:38.424Z,22.37
2018-11-29T17:03:08.316Z,16.20
2018-11-29T17:05:37.393Z,15.33
2018-11-29T17:08:06.920Z,15.83
2018-11-29T17:10:36.157Z,15.00
2018-11-29T17:13:09.802Z,14.10
2018-11-29T17:15:38.797Z,14.37
2018-11-29T17:18:07.920Z,15.10
2018-11-29T17:20:37.233Z,15.33
2018-11-29T17:23:07.991Z,15.27
2018-11-29T17:25:37.005Z,14.97
2018-11-29T17:28:06.990Z,14.00
2018-11-29T17:30:36.534Z,15.50
2018-11-29T17:33:06.022Z,15.90
2018-11-29T17:35:35.023Z,16.10
2018-11-29T17:38:04.129Z,14.70
2018-11-29T17:40:33.527Z,14.33
2018-11-29T17:43:02.458Z,15.10
2018-11-29T17:45:31.645Z,14.00
2018-11-29T17:48:02.980Z,14.53
2018-11-29T17:50:34.263Z,14.60
2018-11-29T17:53:03.578Z,15.30
2018-11-29T17:55:32.531Z,12.47
2018-11-29T17:58:01.621Z,12.80
2018-11-29T18:00:33.133Z,14.77
2018-11-29T18:03:02.196Z,13.77
2018-11-29T18:05:31.237Z,16.93
2018-11-29T18:08:00.184Z,14.60
2018-11-29T18:10:31.149Z,14.13
2018-11-29T18:13:03.189Z,19.43
2018-11-29T18:15:33.857Z,14.33
2018-11-29T18:18:02.775Z,15.27
2018-11-29T18:20:31.793Z,15.00
2018-11-29T18:23:00.744Z,16.60
2018-11-29T18:25:29.865Z,16.20
2018-11-29T18:27:58.780Z,15.93
2018-11-29T18:30:27.825Z,15.53
2018-11-29T18:32:56.790Z,16.93
2018-11-29T18:35:25.788Z,14.67
2018-11-29T18:37:54.800Z,16.07
2018-11-29T18:40:23.820Z,13.90
2018-11-29T18:43:00.326Z,14.27
2018-11-29T18:45:29.437Z,14.27
2018-11-29T18:47:58.409Z,15.20
2018-11-29T18:50:27.494Z,15.87
2018-11-29T18:52:56.480Z,13.90
2018-11-29T18:55:29.713Z,14.30
2018-11-29T18:57:58.949Z,17.33
2018-11-29T19:00:29.344Z,26.30
2018-11-29T19:02:58.340Z,20.97
2018-11-29T19:05:27.237Z,13.33
2018-11-29T19:07:56.202Z,15.40
2018-11-29T19:10:25.521Z,14.00
2018-11-29T19:13:11.468Z,14.53
2018-11-29T19:15:40.908Z,13.67
2018-11-29T19:18:10.973Z,16.93
2018-11-29T19:20:39.569Z,14.90
2018-11-29T19:23:08.469Z,13.90
2018-11-29T19:25:37.500Z,13.57
2018-11-29T19:28:07.413Z,14.20
2018-11-29T19:30:36.932Z,14.60
2018-11-29T19:33:17.440Z,14.70
2018-11-29T19:35:45.565Z,14.30
2018-11-29T19:38:14.567Z,13.63
2018-11-29T19:40:43.607Z,13.87
2018-11-29T19:43:12.586Z,13.50
2018-11-29T19:45:41.602Z,12.87
2018-11-29T19:48:11.180Z,14.87
2018-11-29T19:50:40.236Z,14.07
2018-11-29T19:53:16.020Z,20.07
2018-11-29T19:55:45.074Z,19.40
2018-11-29T19:58:18.213Z,14.97
2018-11-29T20:00:47.754Z,15.93
2018-11-29T20:03:16.706Z,16.67
2018-11-29T20:05:46.746Z,15.13
2018-11-29T20:08:16.407Z,15.43
2018-11-29T20:10:46.446Z,16.10
2018-11-29T20:13:16.199Z,15.20
2018-11-29T20:15:47.364Z,16.10
2018-11-29T20:18:16.416Z,15.33
2018-11-29T20:20:45.831Z,14.80
2018-11-29T20:23:15.253Z,16.27
2018-11-29T20:25:45.231Z,14.60
2018-11-29T20:28:15.380Z,15.20
2018-11-29T20:30:46.239Z,15.00
2018-11-29T20:33:16.252Z,14.37
2018-11-29T20:35:45.185Z,14.23
2018-11-29T20:38:14.435Z,14.83
2018-11-29T20:40:45.179Z,13.83
2018-11-29T20:43:14.467Z,14.03
2018-11-29T20:45:51.516Z,13.60
2018-11-29T20:48:23.573Z,14.93
2018-11-29T20:50:53.868Z,15.27
2018-11-29T20:53:26.509Z,15.30
2018-11-29T20:55:55.993Z,15.27
2018-11-29T20:58:26.198Z,16.40
2018-11-29T21:00:55.193Z,16.80
2018-11-29T21:03:24.212Z,16.33
2018-11-29T21:05:53.229Z,14.87
2018-11-29T21:08:23.007Z,15.80
2018-11-29T21:10:52.241Z,15.03
2018-11-29T21:13:21.141Z,15.63
2018-11-29T21:15:50.113Z,15.23
2018-11-29T21:18:19.028Z,15.30
2018-11-29T21:20:48.030Z,15.03
2018-11-29T21:23:18.240Z,14.33
2018-11-29T21:25:47.471Z,14.70
2018-11-29T21:28:16.565Z,15.50
2018-11-29T21:30:45.584Z,13.77
2018-11-29T21:33:15.156Z,14.40
2018-11-29T21:35:44.097Z,14.83
2018-11-29T21:38:15.473Z,15.23
2018-11-29T21:40:52.974Z,13.40
2018-11-29T21:43:22.625Z,14.53
2018-11-29T21:45:51.701Z,13.73
2018-11-29T21:48:21.076Z,15.30
2018-11-29T21:50:50.671Z,14.47
2018-11-29T21:53:20.098Z,14.57
2018-11-29T21:55:49.140Z,13.47
2018-11-29T21:58:18.669Z,14.80
2018-11-29T22:00:47.564Z,14.53
2018-11-29T22:03:17.334Z,14.40
2018-11-29T22:05:46.309Z,14.47
2018-11-29T22:08:15.917Z,13.50
2018-11-29T22:10:45.901Z,13.33
2018-11-29T22:13:15.792Z,13.57
2018-11-29T22:15:44.885Z,15.00
2018-11-29T22:18:20.860Z,13.47
2018-11-29T22:20:53.700Z,13.83
2018-11-29T22:23:23.284Z,13.70
2018-11-29T22:25:53.536Z,12.50
2018-11-29T22:28:22.559Z,12.93
2018-11-29T22:30:51.477Z,14.47
2018-11-29T22:33:20.826Z,13.63
2018-11-29T22:35:51.088Z,13.97
2018-11-29T22:38:20.051Z,16.13
2018-11-29T22:40:49.416Z,17.17
2018-11-29T22:43:18.363Z,14.83
2018-11-29T22:45:47.336Z,15.30
2018-11-29T22:48:16.825Z,14.53
2018-11-29T22:50:46.697Z,15.13
2018-11-29T22:53:17.079Z,14.77
2018-11-29T22:55:45.997Z,14.33
2018-11-29T22:58:16.111Z,14.70
2018-11-29T23:00:51.853Z,14.10
2018-11-29T23:03:21.708Z,15.00
2018-11-29T23:05:51.104Z,14.93
2018-11-29T23:08:20.101Z,13.70
2018-11-29T23:10:49.189Z,13.80
2018-11-29T23:13:18.604Z,13.80
2018-11-29T23:15:47.656Z,13.93
2018-11-29T23:18:16.989Z,13.03
2018-11-29T23:20:45.955Z,12.63
2018-11-29T23:23:15.344Z,13.37
2018-11-29T23:25:44.568Z,13.47
2018-11-29T23:28:13.865Z,13.60
2018-11-29T23:30:42.803Z,14.67
2018-11-29T23:33:12.943Z,12.57
2018-11-29T23:35:43.107Z,14.37
2018-11-29T23:38:12.038Z,14.03
2018-11-29T23:40:41.765Z,12.60
2018-11-29T23:43:12.763Z,13.70
2018-11-29T23:45:41.780Z,13.83
2018-11-29T23:48:10.682Z,11.97
2018-11-29T23:50:41.033Z,12.33
2018-11-29T23:53:10.144Z,12.17
2018-11-29T23:55:39.304Z,11.10
2018-11-29T23:58:09.145Z,13.17
